createdAt,value
2023-03-31T00:00:12.087Z,100083.13
2023-03-31T00:00:35.073Z,100094.91
2023-03-31T00:01:00.771Z,100093.94
2023-03-31T00:01:13.610Z,100085.88
2023-03-31T00:01:26.231Z,100087.94
2023-03-31T00:01:42.016Z,100087.75
2023-03-31T00:01:54.604Z,100087.63
2023-03-31T00:02:13.467Z,100087.06
2023-03-31T00:02:26.306Z,100080.34
2023-03-31T00:02:41.434Z,100082.50
2023-03-31T00:02:56.180Z,100088.34
2023-03-31T00:03:10.988Z,100082.44
2023-03-31T00:03:24.069Z,100084.41
2023-03-31T00:03:38.916Z,100088.25
2023-03-31T00:04:02.184Z,100082.34
2023-03-31T00:04:16.480Z,100081.84
2023-03-31T00:04:32.237Z,100089.28
2023-03-31T00:04:46.619Z,100080.22
2023-03-31T00:04:59.971Z,100082.19
2023-03-31T00:05:18.298Z,100086.03
2023-03-31T00:05:33.319Z,100079.97
2023-03-31T00:05:48.155Z,100088.19
2023-03-31T00:06:01.480Z,100081.97
2023-03-31T00:06:18.382Z,100075.91
2023-03-31T00:06:32.844Z,100079.63
2023-03-31T00:06:46.921Z,100069.31
2023-03-31T00:06:59.498Z,100081.28
2023-03-31T00:07:14.168Z,100082.31
2023-03-31T00:07:27.202Z,100072.69
2023-03-31T00:07:39.846Z,100077.31
2023-03-31T00:07:55.183Z,100079.53
2023-03-31T00:08:09.398Z,100086.63
2023-03-31T00:08:22.047Z,100086.50
2023-03-31T00:08:40.343Z,100083.19
2023-03-31T00:08:53.951Z,100081.66
2023-03-31T00:09:10.973Z,100081.13
2023-03-31T00:09:24.178Z,100077.06
2023-03-31T00:09:36.789Z,100085.25
2023-03-31T00:09:49.384Z,100084.56
2023-03-31T00:10:16.534Z,100083.91
2023-03-31T00:10:33.958Z,100080.69
2023-03-31T00:10:46.859Z,100077.44
2023-03-31T00:11:00.810Z,100080.28
2023-03-31T00:11:14.490Z,100078.59
2023-03-31T00:11:27.084Z,100085.13
2023-03-31T00:11:40.937Z,100084.44
2023-03-31T00:11:53.517Z,100079.75
2023-03-31T00:12:06.816Z,100080.69
2023-03-31T00:12:19.383Z,100078.00
2023-03-31T00:12:32.054Z,100078.00
2023-03-31T00:12:44.816Z,100073.59
2023-03-31T00:12:58.476Z,100079.97
2023-03-31T00:13:11.715Z,100080.13
2023-03-31T00:13:24.317Z,100078.59
2023-03-31T00:13:37.205Z,100081.28
2023-03-31T00:13:49.846Z,100076.94
2023-03-31T00:14:02.674Z,100077.91
2023-03-31T00:14:17.887Z,100077.06
2023-03-31T00:14:31.554Z,100079.06
2023-03-31T00:14:44.585Z,100085.97
2023-03-31T00:14:57.175Z,100083.44
2023-03-31T00:15:10.532Z,100081.75
2023-03-31T00:15:23.198Z,100089.66
2023-03-31T00:15:35.906Z,100085.13
2023-03-31T00:15:48.481Z,100089.34
2023-03-31T00:16:03.208Z,100095.03
2023-03-31T00:16:17.288Z,100091.47
2023-03-31T00:16:29.962Z,100088.50
2023-03-31T00:16:42.661Z,100095.41
2023-03-31T00:16:55.399Z,100091.00
2023-03-31T00:17:08.102Z,100099.25
2023-03-31T00:17:20.839Z,100092.34
2023-03-31T00:17:33.511Z,100090.63
2023-03-31T00:17:47.394Z,100088.97
2023-03-31T00:18:00.721Z,100093.31
2023-03-31T00:18:13.430Z,100091.88
2023-03-31T00:18:26.284Z,100095.78
2023-03-31T00:18:40.940Z,100098.63
2023-03-31T00:18:53.526Z,100098.16
2023-03-31T00:19:10.295Z,100107.88
2023-03-31T00:19:24.520Z,100099.69
2023-03-31T00:19:37.390Z,100102.06
2023-03-31T00:19:50.278Z,100105.44
2023-03-31T00:20:05.674Z,100099.59
2023-03-31T00:20:18.303Z,100099.59
2023-03-31T00:20:33.532Z,100102.44
2023-03-31T00:20:47.145Z,100101.91
2023-03-31T00:21:14.584Z,100105.06
2023-03-31T00:21:29.849Z,100106.91
2023-03-31T00:21:42.780Z,100103.91
2023-03-31T00:21:56.392Z,100101.44
2023-03-31T00:22:09.100Z,100100.81
2023-03-31T00:22:22.220Z,100099.66
2023-03-31T00:22:34.838Z,100099.81
2023-03-31T00:22:47.463Z,100097.31
2023-03-31T00:23:01.794Z,100098.97
2023-03-31T00:23:14.673Z,100100.34
2023-03-31T00:23:28.058Z,100096.97
2023-03-31T00:23:41.940Z,100097.44
2023-03-31T00:23:56.593Z,100099.44
2023-03-31T00:24:11.174Z,100100.06
2023-03-31T00:24:23.752Z,100099.38
2023-03-31T00:24:36.468Z,100103.06
2023-03-31T00:24:49.059Z,100105.28
2023-03-31T00:25:02.667Z,100100.97
2023-03-31T00:25:16.305Z,100110.25
2023-03-31T00:25:28.914Z,100100.91
2023-03-31T00:25:41.796Z,100103.72
2023-03-31T00:25:55.372Z,100100.72
2023-03-31T00:26:08.311Z,100103.09
2023-03-31T00:26:22.717Z,100102.56
2023-03-31T00:26:36.746Z,100104.75
2023-03-31T00:26:49.343Z,100104.06
2023-03-31T00:27:03.161Z,100110.53
2023-03-31T00:27:16.663Z,100105.50
2023-03-31T00:27:29.251Z,100100.75
2023-03-31T00:27:44.203Z,100106.28
2023-03-31T00:27:57.014Z,100101.22
2023-03-31T00:28:10.651Z,100097.91
2023-03-31T00:28:23.268Z,100102.59
2023-03-31T00:28:35.900Z,100099.38
2023-03-31T00:28:48.549Z,100100.53
2023-03-31T00:29:01.645Z,100105.06
2023-03-31T00:29:14.341Z,100101.06
2023-03-31T00:29:28.119Z,100092.31
2023-03-31T00:29:41.719Z,100101.34
2023-03-31T00:29:54.644Z,100104.13
2023-03-31T00:30:08.829Z,100100.59
2023-03-31T00:30:21.587Z,100100.94
2023-03-31T00:30:34.150Z,100103.91
2023-03-31T00:30:47.437Z,100101.91
2023-03-31T00:31:02.326Z,100104.44
2023-03-31T00:31:16.666Z,100107.59
2023-03-31T00:31:29.637Z,100104.22
2023-03-31T00:31:42.341Z,100101.69
2023-03-31T00:31:55.586Z,100104.22
2023-03-31T00:32:08.296Z,100100.53
2023-03-31T00:32:21.086Z,100102.22
2023-03-31T00:32:34.702Z,100099.84
2023-03-31T00:32:47.344Z,100098.84
2023-03-31T00:33:00.620Z,100100.84
2023-03-31T00:33:13.371Z,100098.16
2023-03-31T00:33:26.649Z,100098.16
2023-03-31T00:33:39.233Z,100103.34
2023-03-31T00:33:52.948Z,100095.16
2023-03-31T00:34:05.842Z,100098.84
2023-03-31T00:34:18.409Z,100098.16
2023-03-31T00:34:32.688Z,100100.84
2023-03-31T00:34:46.334Z,100102.84
2023-03-31T00:34:58.985Z,100099.16
2023-03-31T00:35:12.647Z,100100.84
2023-03-31T00:35:25.337Z,100102.53
2023-03-31T00:35:39.365Z,100099.16
2023-03-31T00:35:52.552Z,100102.84
2023-03-31T00:36:06.436Z,100103.13
2023-03-31T00:36:21.478Z,100106.34
2023-03-31T00:36:36.879Z,100096.94
2023-03-31T00:36:49.711Z,100097.25
2023-03-31T00:37:03.818Z,100099.38
2023-03-31T00:37:16.402Z,100097.38
2023-03-31T00:37:29.600Z,100094.34
2023-03-31T00:37:43.364Z,100089.94
2023-03-31T00:37:58.030Z,100095.31
2023-03-31T00:38:13.958Z,100091.09
2023-03-31T00:38:29.132Z,100090.28
2023-03-31T00:38:46.155Z,100094.16
2023-03-31T00:39:00.671Z,100093.69
2023-03-31T00:39:14.924Z,100096.69
2023-03-31T00:39:31.830Z,100098.44
2023-03-31T00:39:44.434Z,100094.09
2023-03-31T00:39:57.144Z,100098.78
2023-03-31T00:40:10.805Z,100096.09
2023-03-31T00:40:24.574Z,100093.47
2023-03-31T00:40:37.144Z,100097.16
2023-03-31T00:40:51.871Z,100095.78
2023-03-31T00:41:06.679Z,100095.25
2023-03-31T00:41:19.388Z,100092.72
2023-03-31T00:41:32.091Z,100094.09
2023-03-31T00:41:46.557Z,100094.38
2023-03-31T00:41:59.405Z,100090.03
2023-03-31T00:42:13.100Z,100093.41
2023-03-31T00:42:26.740Z,100090.78
2023-03-31T00:42:42.348Z,100089.53
2023-03-31T00:42:54.947Z,100086.56
2023-03-31T00:43:26.666Z,100087.59
2023-03-31T00:43:39.331Z,100090.19
2023-03-31T00:44:10.486Z,100083.44
2023-03-31T00:44:25.436Z,100082.91
2023-03-31T00:45:00.021Z,100080.66
2023-03-31T00:45:25.002Z,100082.09
2023-03-31T00:45:38.479Z,100085.09
2023-03-31T00:45:51.819Z,100088.91
2023-03-31T00:46:15.521Z,100087.25
2023-03-31T00:46:33.686Z,100082.00
2023-03-31T00:46:52.930Z,100086.00
2023-03-31T00:47:11.272Z,100080.50
2023-03-31T00:47:25.424Z,100085.00
2023-03-31T00:47:38.115Z,100086.41
2023-03-31T00:47:54.337Z,100078.03
2023-03-31T00:48:15.232Z,100085.25
2023-03-31T00:48:28.075Z,100087.09
2023-03-31T00:48:46.552Z,100089.47
2023-03-31T00:48:59.273Z,100087.09
2023-03-31T00:49:20.814Z,100085.38
2023-03-31T00:49:40.651Z,100087.09
2023-03-31T00:49:58.847Z,100086.41
2023-03-31T00:50:15.961Z,100078.72
2023-03-31T00:50:32.900Z,100084.41
2023-03-31T00:50:51.580Z,100090.91
2023-03-31T00:51:07.219Z,100085.09
2023-03-31T00:51:22.624Z,100087.47
2023-03-31T00:51:36.315Z,100087.16
2023-03-31T00:51:51.174Z,100089.84
2023-03-31T00:52:07.697Z,100079.78
2023-03-31T00:52:23.884Z,100092.13
2023-03-31T00:52:37.603Z,100084.91
2023-03-31T00:52:55.580Z,100082.38
2023-03-31T00:53:13.347Z,100081.78
2023-03-31T00:53:29.659Z,100087.47
2023-03-31T00:53:42.874Z,100079.56
2023-03-31T00:54:00.415Z,100078.41
2023-03-31T00:54:13.137Z,100084.09
2023-03-31T00:54:28.713Z,100086.31
2023-03-31T00:54:44.585Z,100082.59
2023-03-31T00:55:00.850Z,100078.38
2023-03-31T00:55:24.435Z,100072.69
2023-03-31T00:55:41.886Z,100078.94
2023-03-31T00:55:58.553Z,100075.22
2023-03-31T00:56:14.846Z,100073.94
2023-03-31T00:56:32.182Z,100076.69
2023-03-31T00:56:48.228Z,100076.84
2023-03-31T00:57:03.697Z,100074.63
2023-03-31T00:57:17.758Z,100071.25
2023-03-31T00:57:39.281Z,100073.25
2023-03-31T00:57:53.756Z,100082.66
2023-03-31T00:58:08.424Z,100073.78
2023-03-31T00:58:28.255Z,100073.59
2023-03-31T00:58:44.757Z,100073.94
2023-03-31T00:59:02.925Z,100074.28
2023-03-31T00:59:17.845Z,100078.97
2023-03-31T00:59:35.181Z,100070.56
2023-03-31T00:59:50.939Z,100069.72
2023-03-31T01:00:10.495Z,100068.72
2023-03-31T01:00:24.192Z,100068.19
2023-03-31T01:00:36.852Z,100067.50
2023-03-31T01:00:52.973Z,100072.47
2023-03-31T01:01:05.772Z,100067.97
2023-03-31T01:01:43.045Z,100062.03
2023-03-31T01:01:59.376Z,100068.69
2023-03-31T01:02:14.007Z,100075.06
2023-03-31T01:02:28.744Z,100073.38
2023-03-31T01:02:51.591Z,100076.19
2023-03-31T01:03:10.200Z,100079.09
2023-03-31T01:03:23.744Z,100072.75
2023-03-31T01:03:38.444Z,100078.25
2023-03-31T01:03:52.522Z,100073.03
2023-03-31T01:04:07.777Z,100076.88
2023-03-31T01:04:22.703Z,100075.22
2023-03-31T01:04:41.771Z,100076.72
2023-03-31T01:04:59.392Z,100081.25
2023-03-31T01:05:12.208Z,100078.97
2023-03-31T01:05:28.903Z,100080.91
2023-03-31T01:05:45.960Z,100080.06
2023-03-31T01:06:04.940Z,100073.84
2023-03-31T01:06:19.954Z,100081.06
2023-03-31T01:06:33.418Z,100089.94
2023-03-31T01:06:57.399Z,100078.38
2023-03-31T01:07:19.583Z,100086.75
2023-03-31T01:07:38.047Z,100087.00
2023-03-31T01:07:52.560Z,100081.50
2023-03-31T01:08:06.193Z,100086.56
2023-03-31T01:08:24.340Z,100077.00
2023-03-31T01:08:39.531Z,100084.19
2023-03-31T01:08:52.569Z,100081.75
2023-03-31T01:09:06.810Z,100087.81
2023-03-31T01:09:20.249Z,100077.22
2023-03-31T01:09:36.168Z,100082.59
2023-03-31T01:09:50.379Z,100081.22
2023-03-31T01:10:05.107Z,100079.53
2023-03-31T01:10:19.378Z,100079.78
2023-03-31T01:10:41.644Z,100082.03
2023-03-31T01:10:57.009Z,100084.28
2023-03-31T01:11:13.171Z,100082.31
2023-03-31T01:11:28.222Z,100078.06
2023-03-31T01:11:42.074Z,100084.44
2023-03-31T01:11:54.987Z,100075.84
2023-03-31T01:12:09.547Z,100078.38
2023-03-31T01:12:23.158Z,100084.59
2023-03-31T01:12:39.394Z,100078.53
2023-03-31T01:12:54.849Z,100080.66
2023-03-31T01:13:09.710Z,100077.09
2023-03-31T01:13:24.094Z,100080.09
2023-03-31T01:13:40.557Z,100078.13
2023-03-31T01:13:56.299Z,100081.78
2023-03-31T01:14:10.548Z,100078.41
2023-03-31T01:14:23.186Z,100079.28
2023-03-31T01:14:36.525Z,100079.09
2023-03-31T01:14:50.561Z,100072.69
2023-03-31T01:15:05.908Z,100078.94
2023-03-31T01:15:20.157Z,100080.28
2023-03-31T01:15:32.840Z,100082.31
2023-03-31T01:15:45.889Z,100077.22
2023-03-31T01:15:58.586Z,100081.28
2023-03-31T01:16:11.164Z,100074.53
2023-03-31T01:16:24.914Z,100081.91
2023-03-31T01:16:39.929Z,100075.00
2023-03-31T01:16:53.597Z,100081.06
2023-03-31T01:17:09.725Z,100079.53
2023-03-31T01:17:25.239Z,100084.19
2023-03-31T01:17:38.820Z,100080.81
2023-03-31T01:17:55.995Z,100079.53
2023-03-31T01:18:11.458Z,100083.06
2023-03-31T01:18:24.875Z,100086.56
2023-03-31T01:18:40.008Z,100075.84
2023-03-31T01:18:52.673Z,100082.59
2023-03-31T01:19:09.019Z,100075.56
2023-03-31T01:19:33.328Z,100075.69
2023-03-31T01:20:01.839Z,100083.19
2023-03-31T01:20:23.127Z,100080.81
2023-03-31T01:20:52.825Z,100073.91
2023-03-31T01:21:47.466Z,100077.38
2023-03-31T01:22:37.892Z,100076.69
2023-03-31T01:23:15.746Z,100070.63
2023-03-31T01:24:15.029Z,100066.19
2023-03-31T01:25:03.779Z,100061.59
2023-03-31T01:25:51.417Z,100069.06
2023-03-31T01:26:38.609Z,100068.84
2023-03-31T01:27:11.211Z,100069.38
2023-03-31T01:27:43.872Z,100061.88
2023-03-31T01:28:13.889Z,100068.63
2023-03-31T01:28:33.673Z,100066.56
2023-03-31T01:28:52.614Z,100069.53
2023-03-31T01:29:16.158Z,100063.81
2023-03-31T01:29:55.470Z,100069.94
2023-03-31T01:30:33.468Z,100072.06
2023-03-31T01:31:08.297Z,100066.31
2023-03-31T01:31:58.097Z,100065.56
2023-03-31T01:32:46.666Z,100064.66
2023-03-31T01:33:37.449Z,100063.06
2023-03-31T01:34:24.297Z,100062.81
2023-03-31T01:35:30.511Z,100064.03
2023-03-31T01:36:06.484Z,100062.97
2023-03-31T01:36:54.786Z,100050.75
2023-03-31T01:37:36.473Z,100051.34
2023-03-31T01:38:27.147Z,100051.56
2023-03-31T01:39:09.948Z,100051.91
2023-03-31T01:39:59.078Z,100049.19
2023-03-31T01:40:34.981Z,100047.22
2023-03-31T01:41:21.088Z,100037.78
2023-03-31T01:41:41.830Z,100040.78
2023-03-31T01:42:01.679Z,100045.16
2023-03-31T01:42:17.386Z,100038.63
2023-03-31T01:42:37.009Z,100036.97
2023-03-31T01:42:56.464Z,100038.13
2023-03-31T01:43:17.338Z,100041.50
2023-03-31T01:43:37.177Z,100037.78
2023-03-31T01:43:59.754Z,100038.84
2023-03-31T01:44:22.566Z,100041.97
2023-03-31T01:44:45.006Z,100040.66
2023-03-31T01:45:06.650Z,100040.81
2023-03-31T01:45:29.853Z,100043.56
2023-03-31T01:45:52.769Z,100043.56
2023-03-31T01:46:14.929Z,100042.41
2023-03-31T01:46:31.192Z,100039.72
2023-03-31T01:46:53.304Z,100040.63
2023-03-31T01:47:11.252Z,100039.25
2023-03-31T01:47:32.950Z,100038.56
2023-03-31T01:47:50.372Z,100038.56
2023-03-31T01:48:09.302Z,100041.41
2023-03-31T01:48:34.047Z,100035.34
2023-03-31T01:48:54.664Z,100037.81
2023-03-31T01:49:19.887Z,100048.06
2023-03-31T01:49:39.658Z,100044.41
2023-03-31T01:50:00.024Z,100043.03
2023-03-31T01:50:22.592Z,100045.84
2023-03-31T01:50:38.963Z,100043.03
2023-03-31T01:50:58.408Z,100042.47
2023-03-31T01:51:16.475Z,100043.63
2023-03-31T01:51:35.761Z,100043.63
2023-03-31T01:51:56.770Z,100042.81
2023-03-31T01:52:20.612Z,100041.97
2023-03-31T01:52:42.275Z,100044.91
2023-03-31T01:53:02.704Z,100041.25
2023-03-31T01:53:21.888Z,100028.81
2023-03-31T01:53:42.452Z,100036.16
2023-03-31T01:54:02.590Z,100038.16
2023-03-31T01:54:21.334Z,100033.94
2023-03-31T01:54:40.040Z,100035.81
2023-03-31T01:54:57.334Z,100035.81
2023-03-31T01:55:14.605Z,100035.34
2023-03-31T01:55:36.813Z,100038.84
2023-03-31T01:56:01.125Z,100038.16
2023-03-31T01:56:18.516Z,100034.13
2023-03-31T01:56:35.963Z,100038.47
2023-03-31T01:56:53.895Z,100028.44
2023-03-31T01:57:13.413Z,100038.00
2023-03-31T01:57:32.944Z,100038.16
2023-03-31T01:57:51.117Z,100036.50
2023-03-31T01:58:09.226Z,100025.91
2023-03-31T01:58:26.676Z,100033.81
2023-03-31T01:58:43.004Z,100030.28
2023-03-31T01:59:01.837Z,100029.47
2023-03-31T01:59:18.586Z,100027.44
2023-03-31T01:59:38.054Z,100032.13
2023-03-31T01:59:58.631Z,100029.75
2023-03-31T02:00:14.293Z,100026.22
2023-03-31T02:00:33.442Z,100027.38
2023-03-31T02:01:01.909Z,100036.41
2023-03-31T02:01:21.132Z,100026.38
2023-03-31T02:01:38.084Z,100024.69
2023-03-31T02:01:56.379Z,100030.22
2023-03-31T02:02:16.667Z,100031.22
2023-03-31T02:02:33.279Z,100023.31
2023-03-31T02:02:51.606Z,100032.34
2023-03-31T02:03:09.867Z,100028.00
2023-03-31T02:03:26.846Z,100023.47
2023-03-31T02:03:45.919Z,100024.47
2023-03-31T02:04:03.344Z,100024.47
2023-03-31T02:04:21.662Z,100021.78
2023-03-31T02:04:42.287Z,100022.09
2023-03-31T02:04:59.440Z,100018.41
2023-03-31T02:05:17.503Z,100025.59
2023-03-31T02:05:34.007Z,100029.28
2023-03-31T02:05:51.670Z,100023.09
2023-03-31T02:06:11.393Z,100027.63
2023-03-31T02:06:28.854Z,100030.31
2023-03-31T02:06:46.730Z,100024.06
2023-03-31T02:07:04.133Z,100026.59
2023-03-31T02:07:20.660Z,100026.59
2023-03-31T02:07:38.319Z,100036.50
2023-03-31T02:07:55.673Z,100027.44
2023-03-31T02:08:12.416Z,100024.63
2023-03-31T02:08:30.012Z,100017.56
2023-03-31T02:08:46.263Z,100021.25
2023-03-31T02:09:02.440Z,100023.59
2023-03-31T02:09:21.067Z,100019.25
2023-03-31T02:09:38.294Z,100022.91
2023-03-31T02:09:56.538Z,100022.09
2023-03-31T02:10:11.946Z,100015.19
2023-03-31T02:10:29.775Z,100017.03
2023-03-31T02:10:46.115Z,100019.88
2023-03-31T02:11:00.929Z,100027.06
2023-03-31T02:11:14.530Z,100025.22
2023-03-31T02:11:29.113Z,100013.66
2023-03-31T02:11:42.488Z,100020.00
2023-03-31T02:11:57.097Z,100016.50
2023-03-31T02:12:12.395Z,100021.84
2023-03-31T02:12:28.517Z,100017.50
2023-03-31T02:12:44.521Z,100013.13
2023-03-31T02:12:58.614Z,100013.28
2023-03-31T02:13:14.401Z,100009.75
2023-03-31T02:13:29.082Z,100015.97
2023-03-31T02:13:45.504Z,100013.44
2023-03-31T02:14:02.873Z,100020.47
2023-03-31T02:14:21.841Z,100020.66
2023-03-31T02:14:36.034Z,100017.09
2023-03-31T02:14:52.656Z,100018.78
2023-03-31T02:15:10.951Z,100021.34
2023-03-31T02:15:29.262Z,100023.00
2023-03-31T02:15:46.344Z,100022.16
2023-03-31T02:16:02.893Z,100025.84
2023-03-31T02:16:24.546Z,100027.81
2023-03-31T02:16:47.601Z,100026.69
2023-03-31T02:17:03.829Z,100025.00
2023-03-31T02:17:19.817Z,100032.91
2023-03-31T02:17:33.953Z,100028.38
2023-03-31T02:17:51.025Z,100031.06
2023-03-31T02:18:11.072Z,100026.69
2023-03-31T02:18:27.674Z,100029.38
2023-03-31T02:18:41.823Z,100030.34
2023-03-31T02:19:02.285Z,100028.50
2023-03-31T02:19:18.680Z,100023.31
2023-03-31T02:19:38.361Z,100031.19
2023-03-31T02:19:53.664Z,100032.22
2023-03-31T02:20:11.428Z,100031.38
2023-03-31T02:20:27.376Z,100025.13
2023-03-31T02:20:42.412Z,100030.50
2023-03-31T02:20:57.443Z,100023.47
2023-03-31T02:21:14.652Z,100029.66
2023-03-31T02:21:27.299Z,100027.00
2023-03-31T02:21:40.883Z,100030.69
2023-03-31T02:21:54.936Z,100031.50
2023-03-31T02:22:09.956Z,100031.50
2023-03-31T02:22:24.086Z,100028.97
2023-03-31T02:22:40.741Z,100029.81
2023-03-31T02:22:55.623Z,100028.13
2023-03-31T02:23:10.558Z,100029.81
2023-03-31T02:23:26.724Z,100031.50
2023-03-31T02:23:39.968Z,100035.88
2023-03-31T02:23:52.719Z,100040.25
2023-03-31T02:24:11.473Z,100032.06
2023-03-31T02:24:27.133Z,100029.22
2023-03-31T02:24:41.501Z,100026.38
2023-03-31T02:24:56.106Z,100023.84
2023-03-31T02:25:12.212Z,100029.22
2023-03-31T02:25:30.599Z,100031.19
2023-03-31T02:25:49.643Z,100032.06
2023-03-31T02:26:07.170Z,100036.28
2023-03-31T02:26:25.581Z,100033.41
2023-03-31T02:26:43.778Z,100028.91
2023-03-31T02:27:05.519Z,100033.97
2023-03-31T02:27:22.344Z,100032.97
2023-03-31T02:27:39.229Z,100023.38
2023-03-31T02:27:55.920Z,100022.41
2023-03-31T02:28:12.128Z,100028.75
2023-03-31T02:28:28.368Z,100020.56
2023-03-31T02:28:41.223Z,100024.25
2023-03-31T02:28:53.895Z,100022.53
2023-03-31T02:29:06.960Z,100029.59
2023-03-31T02:29:20.262Z,100022.69
2023-03-31T02:29:34.131Z,100022.53
2023-03-31T02:29:47.163Z,100017.19
2023-03-31T02:30:00.176Z,100022.53
2023-03-31T02:30:14.793Z,100016.50
2023-03-31T02:30:34.377Z,100013.81
2023-03-31T02:30:56.967Z,100012.81
2023-03-31T02:31:22.384Z,100016.50
2023-03-31T02:31:42.828Z,100015.78
2023-03-31T02:32:01.549Z,100017.78
2023-03-31T02:32:21.334Z,100021.47
2023-03-31T02:32:38.267Z,100019.63
2023-03-31T02:32:51.105Z,100027.22
2023-03-31T02:33:05.403Z,100032.28
2023-03-31T02:33:18.085Z,100018.00
2023-03-31T02:33:30.901Z,100023.38
2023-03-31T02:33:43.545Z,100019.88
2023-03-31T02:33:56.629Z,100017.31
2023-03-31T02:34:10.328Z,100016.50
2023-03-31T02:34:23.802Z,100016.63
2023-03-31T02:34:36.405Z,100013.94
2023-03-31T02:34:49.458Z,100011.28
2023-03-31T02:35:02.499Z,100015.97
2023-03-31T02:35:20.153Z,100017.78
2023-03-31T02:35:35.035Z,100015.44
2023-03-31T02:35:48.731Z,100013.72
2023-03-31T02:36:02.157Z,100016.41
2023-03-31T02:36:16.009Z,100014.72
2023-03-31T02:36:29.610Z,100017.41
2023-03-31T02:36:44.137Z,100012.06
2023-03-31T02:36:56.992Z,100025.47
2023-03-31T02:37:11.152Z,100018.38
2023-03-31T02:37:24.446Z,100023.94
2023-03-31T02:37:38.836Z,100019.09
2023-03-31T02:37:52.477Z,100015.44
2023-03-31T02:38:06.802Z,100023.63
2023-03-31T02:38:19.717Z,100021.94
2023-03-31T02:38:34.951Z,100018.38
2023-03-31T02:38:52.558Z,100019.41
2023-03-31T02:39:08.762Z,100017.41
2023-03-31T02:39:26.076Z,100016.56
2023-03-31T02:39:41.868Z,100013.03
2023-03-31T02:39:57.108Z,100017.72
2023-03-31T02:40:14.788Z,100013.50
2023-03-31T02:40:27.824Z,100016.34
2023-03-31T02:40:41.734Z,100018.16
2023-03-31T02:40:56.101Z,100016.63
2023-03-31T02:41:10.255Z,100016.94
2023-03-31T02:41:22.996Z,100017.91
2023-03-31T02:41:36.666Z,100024.28
2023-03-31T02:41:49.435Z,100018.94
2023-03-31T02:42:07.402Z,100015.56
2023-03-31T02:42:20.588Z,100016.25
2023-03-31T02:42:33.232Z,100017.47
2023-03-31T02:42:46.149Z,100017.31
2023-03-31T02:42:58.758Z,100022.81
2023-03-31T02:43:11.487Z,100020.84
2023-03-31T02:43:24.078Z,100020.56
2023-03-31T02:43:37.658Z,100018.72
2023-03-31T02:43:50.235Z,100018.72
2023-03-31T02:44:02.966Z,100026.75
2023-03-31T02:44:17.350Z,100018.00
2023-03-31T02:44:30.252Z,100019.16
2023-03-31T02:44:43.181Z,100020.31
2023-03-31T02:45:03.147Z,100017.91
2023-03-31T02:45:45.120Z,100018.94
2023-03-31T02:45:57.775Z,100022.31
2023-03-31T02:46:11.701Z,100018.63
2023-03-31T02:46:25.804Z,100022.31
2023-03-31T02:46:39.820Z,100018.09
2023-03-31T02:46:53.310Z,100017.22
2023-03-31T02:47:08.891Z,100022.91
2023-03-31T02:47:22.367Z,100023.22
2023-03-31T02:47:35.109Z,100018.84
2023-03-31T02:47:47.741Z,100016.47
2023-03-31T02:48:00.498Z,100019.28
2023-03-31T02:48:17.538Z,100018.47
2023-03-31T02:48:34.317Z,100019.59
2023-03-31T02:48:51.070Z,100017.06
2023-03-31T02:49:07.414Z,100021.03
2023-03-31T02:49:21.755Z,100019.66
2023-03-31T02:49:36.506Z,100026.72
2023-03-31T02:49:53.034Z,100020.66
2023-03-31T02:50:08.253Z,100027.00
2023-03-31T02:50:29.661Z,100017.66
2023-03-31T02:50:59.654Z,100027.00
2023-03-31T02:51:32.191Z,100018.97
2023-03-31T02:52:24.062Z,100028.97
2023-03-31T02:52:50.573Z,100028.28
2023-03-31T02:53:14.182Z,100029.44
2023-03-31T02:53:38.660Z,100028.59
2023-03-31T02:54:04.969Z,100033.13
2023-03-31T02:54:34.837Z,100027.91
2023-03-31T02:55:10.414Z,100034.41
2023-03-31T02:55:47.327Z,100033.41
2023-03-31T02:56:21.490Z,100031.84
2023-03-31T02:56:51.794Z,100030.47
2023-03-31T02:57:20.704Z,100032.31
2023-03-31T02:57:55.610Z,100027.94
2023-03-31T02:58:29.791Z,100033.47
2023-03-31T02:58:57.826Z,100033.56
2023-03-31T02:59:21.984Z,100032.16
2023-03-31T02:59:48.466Z,100035.00
2023-03-31T03:00:13.602Z,100036.13
2023-03-31T03:00:37.081Z,100034.09
2023-03-31T03:01:15.752Z,100027.91
2023-03-31T03:01:41.036Z,100031.84
2023-03-31T03:02:07.826Z,100034.69
2023-03-31T03:02:32.115Z,100035.69
2023-03-31T03:03:02.766Z,100030.47
2023-03-31T03:03:29.215Z,100025.09
2023-03-31T03:03:56.414Z,100023.72
2023-03-31T03:04:25.778Z,100027.41
2023-03-31T03:04:59.917Z,100027.69
2023-03-31T03:05:24.838Z,100036.72
2023-03-31T03:05:49.802Z,100037.56
2023-03-31T03:06:13.893Z,100039.09
2023-03-31T03:06:38.625Z,100032.16
2023-03-31T03:06:59.483Z,100035.25
2023-03-31T03:07:22.635Z,100027.19
2023-03-31T03:07:42.768Z,100032.88
2023-03-31T03:08:04.348Z,100029.88
2023-03-31T03:08:28.784Z,100030.88
2023-03-31T03:08:55.758Z,100029.03
2023-03-31T03:09:18.456Z,100028.50
2023-03-31T03:09:41.863Z,100028.78
2023-03-31T03:10:04.211Z,100032.75
2023-03-31T03:10:27.851Z,100029.38
2023-03-31T03:10:48.123Z,100031.34
2023-03-31T03:11:11.794Z,100030.66
2023-03-31T03:11:31.838Z,100029.97
2023-03-31T03:11:52.188Z,100028.28
2023-03-31T03:12:11.495Z,100026.59
2023-03-31T03:12:28.093Z,100029.41
2023-03-31T03:12:48.799Z,100027.72
2023-03-31T03:13:09.521Z,100026.91
2023-03-31T03:13:26.972Z,100022.50
2023-03-31T03:13:47.231Z,100024.50
2023-03-31T03:14:06.708Z,100024.50
2023-03-31T03:14:29.325Z,100023.78
2023-03-31T03:14:48.146Z,100023.97
2023-03-31T03:15:08.130Z,100032.97
2023-03-31T03:15:26.584Z,100026.09
2023-03-31T03:15:47.415Z,100020.88
2023-03-31T03:16:04.393Z,100031.75
2023-03-31T03:16:25.575Z,100022.00
2023-03-31T03:16:41.658Z,100024.69
2023-03-31T03:16:59.056Z,100029.34
2023-03-31T03:17:17.356Z,100021.31
2023-03-31T03:17:34.980Z,100031.31
2023-03-31T03:17:50.414Z,100029.47
2023-03-31T03:18:05.939Z,100025.13
2023-03-31T03:18:18.776Z,100033.28
2023-03-31T03:18:32.003Z,100032.59
2023-03-31T03:18:44.656Z,100031.75
2023-03-31T03:18:58.267Z,100032.59
2023-03-31T03:19:19.214Z,100031.75
2023-03-31T03:19:31.781Z,100029.78
2023-03-31T03:19:44.370Z,100032.28
2023-03-31T03:20:00.818Z,100026.47
2023-03-31T03:20:14.452Z,100026.34
2023-03-31T03:20:28.945Z,100031.56
2023-03-31T03:20:43.109Z,100027.16
2023-03-31T03:20:55.973Z,100024.66
2023-03-31T03:21:08.611Z,100028.31
2023-03-31T03:21:21.198Z,100026.66
2023-03-31T03:21:34.283Z,100025.94
2023-03-31T03:21:47.639Z,100022.41
2023-03-31T03:22:01.237Z,100026.38
2023-03-31T03:22:13.867Z,100036.09
2023-03-31T03:22:26.452Z,100028.19
2023-03-31T03:22:40.636Z,100031.03
2023-03-31T03:22:53.278Z,100025.53
2023-03-31T03:23:06.227Z,100027.09
2023-03-31T03:23:20.055Z,100026.91
2023-03-31T03:23:34.187Z,100025.25